sensor_id;sensor_type;location;lat;lon;timestamp;temperature;humidity
19813;DHT22;10066;48.108;11.448;2023-07-28T00:02:20;15.70;99.90
19813;DHT22;10066;48.108;11.448;2023-07-28T00:04:47;15.60;99.90
19813;DHT22;10066;48.108;11.448;2023-07-28T00:07:14;15.60;99.90
19813;DHT22;10066;48.108;11.448;2023-07-28T00:09:41;15.50;99.90
19813;DHT22;10066;48.108;11.448;2023-07-28T00:12:08;15.50;99.90
19813;DHT22;10066;48.108;11.448;2023-07-28T00:14:36;15.50;99.90
19813;DHT22;10066;48.108;11.448;2023-07-28T00:17:04;15.40;99.90
19813;DHT22;10066;48.108;11.448;2023-07-28T00:19:31;15.40;99.90
19813;DHT22;10066;48.108;11.448;2023-07-28T00:21:58;15.40;99.90
19813;DHT22;10066;48.108;11.448;2023-07-28T00:24:25;15.40;99.90
19813;DHT22;10066;48.108;11.448;2023-07-28T00:26:52;15.40;99.90
19813;DHT22;10066;48.108;11.448;2023-07-28T00:29:19;15.40;99.90
19813;DHT22;10066;48.108;11.448;2023-07-28T00:31:47;15.40;99.90
19813;DHT22;10066;48.108;11.448;2023-07-28T00:34:14;15.50;99.90
19813;DHT22;10066;48.108;11.448;2023-07-28T00:36:41;15.50;99.90
19813;DHT22;10066;48.108;11.448;2023-07-28T00:39:08;15.60;99.90
19813;DHT22;10066;48.108;11.448;2023-07-28T00:41:36;15.60;99.90
19813;DHT22;10066;48.108;11.448;2023-07-28T00:44:03;15.60;99.90
19813;DHT22;10066;48.108;11.448;2023-07-28T00:46:30;15.70;99.90
19813;DHT22;10066;48.108;11.448;2023-07-28T00:48:59;15.70;99.90
19813;DHT22;10066;48.108;11.448;2023-07-28T00:51:27;15.70;99.90
19813;DHT22;10066;48.108;11.448;2023-07-28T00:53:54;15.70;99.90
19813;DHT22;10066;48.108;11.448;2023-07-28T00:56:25;15.70;99.90
19813;DHT22;10066;48.108;11.448;2023-07-28T00:58:52;15.70;99.90
19813;DHT22;10066;48.108;11.448;2023-07-28T01:01:20;15.70;99.90
19813;DHT22;10066;48.108;11.448;2023-07-28T01:03:48;15.70;99.90
19813;DHT22;10066;48.108;11.448;2023-07-28T01:06:23;15.70;99.90
19813;DHT22;10066;48.108;11.448;2023-07-28T01:08:57;15.70;99.90
19813;DHT22;10066;48.108;11.448;2023-07-28T01:11:26;15.70;99.90
19813;DHT22;10066;48.108;11.448;2023-07-28T01:13:53;15.60;99.90
19813;DHT22;10066;48.108;11.448;2023-07-28T01:16:20;15.60;99.90
19813;DHT22;10066;48.108;11.448;2023-07-28T01:18:47;15.60;99.90
19813;DHT22;10066;48.108;11.448;2023-07-28T01:21:22;15.60;99.90
19813;DHT22;10066;48.108;11.448;2023-07-28T01:23:58;15.60;99.90
19813;DHT22;10066;48.108;11.448;2023-07-28T01:26:32;15.60;99.90
19813;DHT22;10066;48.108;11.448;2023-07-28T01:29:00;15.60;99.90
19813;DHT22;10066;48.108;11.448;2023-07-28T01:31:27;15.50;99.90
19813;DHT22;10066;48.108;11.448;2023-07-28T01:33:54;15.50;99.90
19813;DHT22;10066;48.108;11.448;2023-07-28T01:36:21;15.40;99.90
19813;DHT22;10066;48.108;11.448;2023-07-28T01:38:48;15.40;99.90
19813;DHT22;10066;48.108;11.448;2023-07-28T01:41:15;15.40;99.90
19813;DHT22;10066;48.108;11.448;2023-07-28T01:43:44;15.30;99.90
19813;DHT22;10066;48.108;11.448;2023-07-28T01:46:10;15.20;99.90
19813;DHT22;10066;48.108;11.448;2023-07-28T01:48:37;15.20;99.90
19813;DHT22;10066;48.108;11.448;2023-07-28T01:51:04;15.10;99.90
19813;DHT22;10066;48.108;11.448;2023-07-28T01:53:31;15.10;99.90
19813;DHT22;10066;48.108;11.448;2023-07-28T01:55:58;15.00;99.90
19813;DHT22;10066;48.108;11.448;2023-07-28T01:58:26;15.00;99.90
19813;DHT22;10066;48.108;11.448;2023-07-28T02:00:54;14.90;99.90
19813;DHT22;10066;48.108;11.448;2023-07-28T02:03:21;14.80;99.90
19813;DHT22;10066;48.108;11.448;2023-07-28T02:05:48;14.80;99.90
19813;DHT22;10066;48.108;11.448;2023-07-28T02:08:15;14.80;99.90
19813;DHT22;10066;48.108;11.448;2023-07-28T02:10:44;14.80;99.90
19813;DHT22;10066;48.108;11.448;2023-07-28T02:13:11;14.70;99.90
19813;DHT22;10066;48.108;11.448;2023-07-28T02:15:38;14.70;99.90
19813;DHT22;10066;48.108;11.448;2023-07-28T02:18:06;14.60;99.90
19813;DHT22;10066;48.108;11.448;2023-07-28T02:20:33;14.60;99.90
19813;DHT22;10066;48.108;11.448;2023-07-28T02:23:01;14.50;99.90
19813;DHT22;10066;48.108;11.448;2023-07-28T02:25:28;14.50;99.90
19813;DHT22;10066;48.108;11.448;2023-07-28T02:27:55;14.50;99.90
19813;DHT22;10066;48.108;11.448;2023-07-28T02:30:22;14.50;99.90
19813;DHT22;10066;48.108;11.448;2023-07-28T02:32:49;14.50;99.90
19813;DHT22;10066;48.108;11.448;2023-07-28T02:35:17;14.50;99.90
19813;DHT22;10066;48.108;11.448;2023-07-28T02:37:44;14.50;99.90
19813;DHT22;10066;48.108;11.448;2023-07-28T02:40:11;14.50;99.90
19813;DHT22;10066;48.108;11.448;2023-07-28T02:42:38;14.50;99.90
19813;DHT22;10066;48.108;11.448;2023-07-28T02:45:06;14.50;99.90
19813;DHT22;10066;48.108;11.448;2023-07-28T02:47:33;14.50;99.90
19813;DHT22;10066;48.108;11.448;2023-07-28T02:50:00;14.50;99.90
19813;DHT22;10066;48.108;11.448;2023-07-28T02:57:23;14.40;99.90
19813;DHT22;10066;48.108;11.448;2023-07-28T02:59:50;14.40;99.90
19813;DHT22;10066;48.108;11.448;2023-07-28T03:02:17;14.40;99.90
19813;DHT22;10066;48.108;11.448;2023-07-28T03:04:44;14.40;99.90
19813;DHT22;10066;48.108;11.448;2023-07-28T03:07:11;14.40;99.90
19813;DHT22;10066;48.108;11.448;2023-07-28T03:09:39;14.50;99.90
19813;DHT22;10066;48.108;11.448;2023-07-28T03:12:07;14.50;99.90
19813;DHT22;10066;48.108;11.448;2023-07-28T03:14:34;14.50;99.90
19813;DHT22;10066;48.108;11.448;2023-07-28T03:17:01;14.50;99.90
19813;DHT22;10066;48.108;11.448;2023-07-28T03:19:27;14.50;99.90
19813;DHT22;10066;48.108;11.448;2023-07-28T03:21:54;14.60;99.90
19813;DHT22;10066;48.108;11.448;2023-07-28T03:24:21;14.60;99.90
19813;DHT22;10066;48.108;11.448;2023-07-28T03:26:49;14.60;99.90
19813;DHT22;10066;48.108;11.448;2023-07-28T03:29:16;14.60;99.90
19813;DHT22;10066;48.108;11.448;2023-07-28T03:31:44;14.70;99.90
19813;DHT22;10066;48.108;11.448;2023-07-28T03:34:10;14.70;99.90
19813;DHT22;10066;48.108;11.448;2023-07-28T03:36:37;14.70;99.90
19813;DHT22;10066;48.108;11.448;2023-07-28T03:39:04;14.70;99.90
19813;DHT22;10066;48.108;11.448;2023-07-28T03:41:31;14.70;99.90
19813;DHT22;10066;48.108;11.448;2023-07-28T03:43:59;14.80;99.90
19813;DHT22;10066;48.108;11.448;2023-07-28T03:46:26;14.80;99.90
19813;DHT22;10066;48.108;11.448;2023-07-28T03:48:53;14.80;99.90
19813;DHT22;10066;48.108;11.448;2023-07-28T03:51:20;14.80;99.90
19813;DHT22;10066;48.108;11.448;2023-07-28T03:53:47;14.90;99.90
19813;DHT22;10066;48.108;11.448;2023-07-28T03:56:14;14.90;99.90
19813;DHT22;10066;48.108;11.448;2023-07-28T03:58:41;15.10;99.90
19813;DHT22;10066;48.108;11.448;2023-07-28T04:01:09;15.10;99.90
19813;DHT22;10066;48.108;11.448;2023-07-28T04:03:36;15.20;99.90
19813;DHT22;10066;48.108;11.448;2023-07-28T04:06:06;15.20;99.90
19813;DHT22;10066;48.108;11.448;2023-07-28T04:08:33;15.30;99.90
19813;DHT22;10066;48.108;11.448;2023-07-28T04:11:00;15.30;99.90
19813;DHT22;10066;48.108;11.448;2023-07-28T04:13:28;15.30;99.90
19813;DHT22;10066;48.108;11.448;2023-07-28T04:15:54;15.30;99.90
19813;DHT22;10066;48.108;11.448;2023-07-28T04:18:23;15.40;99.90
19813;DHT22;10066;48.108;11.448;2023-07-28T04:20:50;15.50;99.90
19813;DHT22;10066;48.108;11.448;2023-07-28T04:23:17;15.50;99.90
19813;DHT22;10066;48.108;11.448;2023-07-28T04:25:44;15.50;99.90
19813;DHT22;10066;48.108;11.448;2023-07-28T04:28:11;15.60;99.90
19813;DHT22;10066;48.108;11.448;2023-07-28T04:30:38;15.70;99.90
19813;DHT22;10066;48.108;11.448;2023-07-28T04:33:05;15.80;99.90
19813;DHT22;10066;48.108;11.448;2023-07-28T04:35:33;16.00;99.90
19813;DHT22;10066;48.108;11.448;2023-07-28T04:38:00;16.20;99.90
19813;DHT22;10066;48.108;11.448;2023-07-28T04:40:27;16.30;99.90
19813;DHT22;10066;48.108;11.448;2023-07-28T04:42:53;16.40;99.90
19813;DHT22;10066;48.108;11.448;2023-07-28T04:45:20;16.50;99.90
19813;DHT22;10066;48.108;11.448;2023-07-28T04:47:47;16.60;99.90
19813;DHT22;10066;48.108;11.448;2023-07-28T04:50:14;16.70;99.90
19813;DHT22;10066;48.108;11.448;2023-07-28T04:52:43;16.70;99.90
19813;DHT22;10066;48.108;11.448;2023-07-28T04:55:10;16.70;99.90
19813;DHT22;10066;48.108;11.448;2023-07-28T04:57:37;16.80;99.90
19813;DHT22;10066;48.108;11.448;2023-07-28T05:00:05;16.90;99.90
19813;DHT22;10066;48.108;11.448;2023-07-28T05:02:32;17.00;99.90
19813;DHT22;10066;48.108;11.448;2023-07-28T05:04:59;17.10;99.90
19813;DHT22;10066;48.108;11.448;2023-07-28T05:07:26;17.20;99.90
19813;DHT22;10066;48.108;11.448;2023-07-28T05:09:55;17.30;99.90
19813;DHT22;10066;48.108;11.448;2023-07-28T05:12:22;17.40;99.90
19813;DHT22;10066;48.108;11.448;2023-07-28T05:14:49;17.40;99.90
19813;DHT22;10066;48.108;11.448;2023-07-28T05:17:16;17.40;99.90
19813;DHT22;10066;48.108;11.448;2023-07-28T05:19:43;17.50;99.90
19813;DHT22;10066;48.108;11.448;2023-07-28T05:22:10;17.60;99.90
19813;DHT22;10066;48.108;11.448;2023-07-28T05:24:37;17.60;99.90
19813;DHT22;10066;48.108;11.448;2023-07-28T05:27:06;17.60;99.90
19813;DHT22;10066;48.108;11.448;2023-07-28T05:29:33;17.70;99.90
19813;DHT22;10066;48.108;11.448;2023-07-28T05:31:59;17.80;99.90
19813;DHT22;10066;48.108;11.448;2023-07-28T05:34:27;17.80;99.90
19813;DHT22;10066;48.108;11.448;2023-07-28T05:36:54;17.90;99.90
19813;DHT22;10066;48.108;11.448;2023-07-28T05:39:22;18.00;99.90
19813;DHT22;10066;48.108;11.448;2023-07-28T05:41:49;18.00;99.90
19813;DHT22;10066;48.108;11.448;2023-07-28T05:44:18;18.00;99.90
19813;DHT22;10066;48.108;11.448;2023-07-28T05:46:45;18.10;99.90
19813;DHT22;10066;48.108;11.448;2023-07-28T05:49:14;18.20;99.90
19813;DHT22;10066;48.108;11.448;2023-07-28T05:51:41;18.20;99.90
19813;DHT22;10066;48.108;11.448;2023-07-28T05:54:08;18.30;99.90
19813;DHT22;10066;48.108;11.448;2023-07-28T05:56:35;18.40;99.90
19813;DHT22;10066;48.108;11.448;2023-07-28T05:59:02;18.60;99.90
19813;DHT22;10066;48.108;11.448;2023-07-28T06:01:30;18.70;99.90
19813;DHT22;10066;48.108;11.448;2023-07-28T06:03:57;18.80;99.90
19813;DHT22;10066;48.108;11.448;2023-07-28T06:06:24;19.00;99.90
19813;DHT22;10066;48.108;11.448;2023-07-28T06:08:52;18.90;99.90
19813;DHT22;10066;48.108;11.448;2023-07-28T06:11:19;19.20;99.90
19813;DHT22;10066;48.108;11.448;2023-07-28T06:13:47;19.30;99.90
19813;DHT22;10066;48.108;11.448;2023-07-28T06:16:15;19.30;99.90
19813;DHT22;10066;48.108;11.448;2023-07-28T06:18:43;19.40;99.90
19813;DHT22;10066;48.108;11.448;2023-07-28T06:21:10;19.40;99.90
19813;DHT22;10066;48.108;11.448;2023-07-28T06:23:37;19.40;99.90
19813;DHT22;10066;48.108;11.448;2023-07-28T06:26:04;19.50;99.90
19813;DHT22;10066;48.108;11.448;2023-07-28T06:28:30;19.50;99.90
19813;DHT22;10066;48.108;11.448;2023-07-28T06:30:58;19.70;99.90
19813;DHT22;10066;48.108;11.448;2023-07-28T06:33:25;19.90;99.90
19813;DHT22;10066;48.108;11.448;2023-07-28T06:35:53;20.00;99.90
19813;DHT22;10066;48.108;11.448;2023-07-28T06:38:20;20.00;99.90
19813;DHT22;10066;48.108;11.448;2023-07-28T06:40:48;20.00;99.90
19813;DHT22;10066;48.108;11.448;2023-07-28T06:43:14;20.00;99.90
19813;DHT22;10066;48.108;11.448;2023-07-28T06:45:43;20.60;99.90
19813;DHT22;10066;48.108;11.448;2023-07-28T06:48:10;21.70;99.90
19813;DHT22;10066;48.108;11.448;2023-07-28T06:50:37;22.00;99.90
19813;DHT22;10066;48.108;11.448;2023-07-28T06:53:05;22.30;99.90
19813;DHT22;10066;48.108;11.448;2023-07-28T06:55:32;22.60;99.90
19813;DHT22;10066;48.108;11.448;2023-07-28T06:57:59;22.40;99.90
19813;DHT22;10066;48.108;11.448;2023-07-28T07:00:27;22.40;99.90
19813;DHT22;10066;48.108;11.448;2023-07-28T07:02:54;22.20;99.90
19813;DHT22;10066;48.108;11.448;2023-07-28T07:05:21;22.00;99.90
19813;DHT22;10066;48.108;11.448;2023-07-28T07:07:49;21.80;99.90
19813;DHT22;10066;48.108;11.448;2023-07-28T07:10:17;21.60;99.90
19813;DHT22;10066;48.108;11.448;2023-07-28T07:12:47;21.60;99.90
19813;DHT22;10066;48.108;11.448;2023-07-28T07:15:14;21.60;99.90
19813;DHT22;10066;48.108;11.448;2023-07-28T07:17:41;21.70;99.90
19813;DHT22;10066;48.108;11.448;2023-07-28T07:20:09;21.90;99.90
19813;DHT22;10066;48.108;11.448;2023-07-28T07:22:37;22.00;99.90
19813;DHT22;10066;48.108;11.448;2023-07-28T07:25:04;22.10;99.90
19813;DHT22;10066;48.108;11.448;2023-07-28T07:27:34;22.20;99.90
19813;DHT22;10066;48.108;11.448;2023-07-28T07:30:01;22.30;99.90
19813;DHT22;10066;48.108;11.448;2023-07-28T07:32:29;22.40;99.90
19813;DHT22;10066;48.108;11.448;2023-07-28T07:34:56;22.40;99.90
19813;DHT22;10066;48.108;11.448;2023-07-28T07:37:23;22.40;99.90
19813;DHT22;10066;48.108;11.448;2023-07-28T07:39:50;22.50;99.90
19813;DHT22;10066;48.108;11.448;2023-07-28T07:42:17;22.60;99.90
19813;DHT22;10066;48.108;11.448;2023-07-28T07:44:45;22.60;99.90
19813;DHT22;10066;48.108;11.448;2023-07-28T07:47:12;22.70;99.90
19813;DHT22;10066;48.108;11.448;2023-07-28T07:49:40;22.90;99.90
19813;DHT22;10066;48.108;11.448;2023-07-28T07:52:07;23.10;99.90
19813;DHT22;10066;48.108;11.448;2023-07-28T07:54:34;23.20;99.90
19813;DHT22;10066;48.108;11.448;2023-07-28T07:57:02;23.40;99.90
19813;DHT22;10066;48.108;11.448;2023-07-28T07:59:29;23.50;99.90
19813;DHT22;10066;48.108;11.448;2023-07-28T08:01:59;23.60;99.90
19813;DHT22;10066;48.108;11.448;2023-07-28T08:04:28;23.60;99.90
19813;DHT22;10066;48.108;11.448;2023-07-28T08:06:56;23.70;99.90
19813;DHT22;10066;48.108;11.448;2023-07-28T08:09:23;23.80;99.90
19813;DHT22;10066;48.108;11.448;2023-07-28T08:11:50;23.90;99.90
19813;DHT22;10066;48.108;11.448;2023-07-28T08:14:17;24.00;99.90
19813;DHT22;10066;48.108;11.448;2023-07-28T08:16:43;24.20;99.90
19813;DHT22;10066;48.108;11.448;2023-07-28T08:19:12;24.30;99.90
19813;DHT22;10066;48.108;11.448;2023-07-28T08:21:39;24.30;99.90
19813;DHT22;10066;48.108;11.448;2023-07-28T08:24:06;24.30;99.90
19813;DHT22;10066;48.108;11.448;2023-07-28T08:26:33;24.30;99.90
19813;DHT22;10066;48.108;11.448;2023-07-28T08:29:00;24.30;99.90
19813;DHT22;10066;48.108;11.448;2023-07-28T08:31:27;24.40;99.90
19813;DHT22;10066;48.108;11.448;2023-07-28T08:33:54;24.60;99.90
19813;DHT22;10066;48.108;11.448;2023-07-28T08:36:23;24.60;99.90
19813;DHT22;10066;48.108;11.448;2023-07-28T08:38:49;24.80;99.90
19813;DHT22;10066;48.108;11.448;2023-07-28T08:41:16;25.10;99.90
19813;DHT22;10066;48.108;11.448;2023-07-28T08:43:43;25.30;99.90
19813;DHT22;10066;48.108;11.448;2023-07-28T08:46:10;25.50;99.90
19813;DHT22;10066;48.108;11.448;2023-07-28T08:48:37;25.50;99.90
19813;DHT22;10066;48.108;11.448;2023-07-28T08:51:04;25.60;99.90
19813;DHT22;10066;48.108;11.448;2023-07-28T08:53:32;25.70;99.90
19813;DHT22;10066;48.108;11.448;2023-07-28T08:55:59;25.70;99.90
19813;DHT22;10066;48.108;11.448;2023-07-28T09:03:20;26.30;99.90
19813;DHT22;10066;48.108;11.448;2023-07-28T09:05:48;26.40;99.90
19813;DHT22;10066;48.108;11.448;2023-07-28T09:08:15;26.50;99.90
19813;DHT22;10066;48.108;11.448;2023-07-28T09:10:45;26.70;99.90
19813;DHT22;10066;48.108;11.448;2023-07-28T09:13:12;26.70;99.90
19813;DHT22;10066;48.108;11.448;2023-07-28T09:15:40;26.60;99.90
19813;DHT22;10066;48.108;11.448;2023-07-28T09:18:11;26.60;99.90
19813;DHT22;10066;48.108;11.448;2023-07-28T09:20:39;26.60;99.90
19813;DHT22;10066;48.108;11.448;2023-07-28T09:23:07;26.50;99.90
19813;DHT22;10066;48.108;11.448;2023-07-28T09:25:35;26.40;99.90
19813;DHT22;10066;48.108;11.448;2023-07-28T09:28:04;26.40;99.90
19813;DHT22;10066;48.108;11.448;2023-07-28T09:30:44;26.30;99.90
19813;DHT22;10066;48.108;11.448;2023-07-28T09:33:12;26.20;99.90
19813;DHT22;10066;48.108;11.448;2023-07-28T09:35:48;26.00;99.90
19813;DHT22;10066;48.108;11.448;2023-07-28T09:38:15;25.90;99.90
19813;DHT22;10066;48.108;11.448;2023-07-28T09:40:43;25.80;99.90
19813;DHT22;10066;48.108;11.448;2023-07-28T09:43:12;25.70;99.90
19813;DHT22;10066;48.108;11.448;2023-07-28T09:45:40;25.60;99.90
19813;DHT22;10066;48.108;11.448;2023-07-28T09:48:07;25.50;99.90
19813;DHT22;10066;48.108;11.448;2023-07-28T09:50:38;25.50;99.90
19813;DHT22;10066;48.108;11.448;2023-07-28T09:53:09;25.30;99.90
19813;DHT22;10066;48.108;11.448;2023-07-28T09:55:39;25.30;99.90
19813;DHT22;10066;48.108;11.448;2023-07-28T09:58:10;25.30;99.90
19813;DHT22;10066;48.108;11.448;2023-07-28T10:00:38;25.20;99.90
19813;DHT22;10066;48.108;11.448;2023-07-28T10:03:05;25.30;99.90
19813;DHT22;10066;48.108;11.448;2023-07-28T10:05:33;25.30;99.90
19813;DHT22;10066;48.108;11.448;2023-07-28T10:08:01;25.40;99.90
19813;DHT22;10066;48.108;11.448;2023-07-28T10:10:29;25.50;99.90
19813;DHT22;10066;48.108;11.448;2023-07-28T10:12:58;25.60;99.90
19813;DHT22;10066;48.108;11.448;2023-07-28T10:15:30;25.70;99.90
19813;DHT22;10066;48.108;11.448;2023-07-28T10:17:58;25.70;99.90
19813;DHT22;10066;48.108;11.448;2023-07-28T10:20:35;25.80;99.90
19813;DHT22;10066;48.108;11.448;2023-07-28T10:23:09;25.80;99.60
19813;DHT22;10066;48.108;11.448;2023-07-28T10:25:39;25.80;99.90
19813;DHT22;10066;48.108;11.448;2023-07-28T10:28:26;25.80;99.90
19813;DHT22;10066;48.108;11.448;2023-07-28T10:30:55;25.80;99.90
19813;DHT22;10066;48.108;11.448;2023-07-28T10:33:30;25.70;99.50
19813;DHT22;10066;48.108;11.448;2023-07-28T10:35:59;25.70;99.20
19813;DHT22;10066;48.108;11.448;2023-07-28T10:38:33;25.50;99.40
19813;DHT22;10066;48.108;11.448;2023-07-28T10:41:09;25.40;98.80
19813;DHT22;10066;48.108;11.448;2023-07-28T10:43:37;25.30;98.50
19813;DHT22;10066;48.108;11.448;2023-07-28T10:46:08;25.30;99.20
19813;DHT22;10066;48.108;11.448;2023-07-28T10:48:36;25.20;99.70
19813;DHT22;10066;48.108;11.448;2023-07-28T10:51:03;25.20;99.40
19813;DHT22;10066;48.108;11.448;2023-07-28T10:53:31;25.20;99.70
19813;DHT22;10066;48.108;11.448;2023-07-28T10:55:59;25.20;99.50
19813;DHT22;10066;48.108;11.448;2023-07-28T10:58:26;25.10;99.60
19813;DHT22;10066;48.108;11.448;2023-07-28T11:00:53;25.10;99.40
19813;DHT22;10066;48.108;11.448;2023-07-28T11:03:22;25.10;99.50
19813;DHT22;10066;48.108;11.448;2023-07-28T11:05:49;25.10;99.40
19813;DHT22;10066;48.108;11.448;2023-07-28T11:08:16;25.10;99.50
19813;DHT22;10066;48.108;11.448;2023-07-28T11:10:43;25.20;99.90
19813;DHT22;10066;48.108;11.448;2023-07-28T11:13:10;25.20;99.30
19813;DHT22;10066;48.108;11.448;2023-07-28T11:15:38;25.30;99.60
19813;DHT22;10066;48.108;11.448;2023-07-28T11:18:05;25.30;99.70
19813;DHT22;10066;48.108;11.448;2023-07-28T11:20:34;25.40;99.20
19813;DHT22;10066;48.108;11.448;2023-07-28T11:23:03;25.50;98.60
19813;DHT22;10066;48.108;11.448;2023-07-28T11:25:31;25.50;98.90
19813;DHT22;10066;48.108;11.448;2023-07-28T11:28:01;25.50;99.20
19813;DHT22;10066;48.108;11.448;2023-07-28T11:30:28;25.60;99.10
19813;DHT22;10066;48.108;11.448;2023-07-28T11:32:55;25.50;98.70
19813;DHT22;10066;48.108;11.448;2023-07-28T11:35:22;25.50;98.20
19813;DHT22;10066;48.108;11.448;2023-07-28T11:37:53;25.50;98.50
19813;DHT22;10066;48.108;11.448;2023-07-28T11:40:22;25.40;97.10
19813;DHT22;10066;48.108;11.448;2023-07-28T11:42:54;25.40;98.40
19813;DHT22;10066;48.108;11.448;2023-07-28T11:45:22;25.30;98.60
19813;DHT22;10066;48.108;11.448;2023-07-28T11:47:56;25.40;98.10
19813;DHT22;10066;48.108;11.448;2023-07-28T11:50:25;25.40;97.00
19813;DHT22;10066;48.108;11.448;2023-07-28T11:52:54;25.50;98.40
19813;DHT22;10066;48.108;11.448;2023-07-28T11:55:22;25.60;98.40
19813;DHT22;10066;48.108;11.448;2023-07-28T11:57:49;25.70;98.40
19813;DHT22;10066;48.108;11.448;2023-07-28T12:00:16;25.70;98.60
19813;DHT22;10066;48.108;11.448;2023-07-28T12:02:44;25.80;98.40
19813;DHT22;10066;48.108;11.448;2023-07-28T12:05:15;25.80;98.10
19813;DHT22;10066;48.108;11.448;2023-07-28T12:07:47;25.80;97.60
19813;DHT22;10066;48.108;11.448;2023-07-28T12:10:15;25.80;96.60
19813;DHT22;10066;48.108;11.448;2023-07-28T12:12:46;25.80;97.80
19813;DHT22;10066;48.108;11.448;2023-07-28T12:15:21;25.80;98.00
19813;DHT22;10066;48.108;11.448;2023-07-28T12:20:40;25.90;96.10
19813;DHT22;10066;48.108;11.448;2023-07-28T12:23:12;26.00;97.00
19813;DHT22;10066;48.108;11.448;2023-07-28T12:25:41;26.10;97.50
19813;DHT22;10066;48.108;11.448;2023-07-28T12:28:08;26.20;97.10
19813;DHT22;10066;48.108;11.448;2023-07-28T12:30:36;26.30;97.20
19813;DHT22;10066;48.108;11.448;2023-07-28T12:33:04;26.40;96.90
19813;DHT22;10066;48.108;11.448;2023-07-28T12:35:31;26.40;97.40
19813;DHT22;10066;48.108;11.448;2023-07-28T12:38:00;26.50;96.40
19813;DHT22;10066;48.108;11.448;2023-07-28T12:40:29;26.50;95.90
19813;DHT22;10066;48.108;11.448;2023-07-28T12:42:58;26.40;96.50
19813;DHT22;10066;48.108;11.448;2023-07-28T12:45:26;26.30;96.40
19813;DHT22;10066;48.108;11.448;2023-07-28T12:47:53;26.20;96.80
19813;DHT22;10066;48.108;11.448;2023-07-28T12:50:20;26.10;96.70
19813;DHT22;10066;48.108;11.448;2023-07-28T12:52:47;25.90;96.70
19813;DHT22;10066;48.108;11.448;2023-07-28T12:55:14;25.90;97.00
19813;DHT22;10066;48.108;11.448;2023-07-28T12:57:41;25.90;96.70
19813;DHT22;10066;48.108;11.448;2023-07-28T13:00:12;25.90;96.60
19813;DHT22;10066;48.108;11.448;2023-07-28T13:02:40;25.90;96.20
19813;DHT22;10066;48.108;11.448;2023-07-28T13:05:09;26.00;96.20
19813;DHT22;10066;48.108;11.448;2023-07-28T13:07:37;26.10;96.00
19813;DHT22;10066;48.108;11.448;2023-07-28T13:10:07;26.10;96.20
19813;DHT22;10066;48.108;11.448;2023-07-28T13:12:35;26.10;95.40
19813;DHT22;10066;48.108;11.448;2023-07-28T13:15:02;26.10;95.00
19813;DHT22;10066;48.108;11.448;2023-07-28T13:17:31;26.10;96.00
19813;DHT22;10066;48.108;11.448;2023-07-28T13:19:58;26.20;95.40
19813;DHT22;10066;48.108;11.448;2023-07-28T13:22:25;26.20;95.90
19813;DHT22;10066;48.108;11.448;2023-07-28T13:24:52;26.30;95.90
19813;DHT22;10066;48.108;11.448;2023-07-28T13:27:19;26.30;96.00
19813;DHT22;10066;48.108;11.448;2023-07-28T13:29:46;26.30;95.70
19813;DHT22;10066;48.108;11.448;2023-07-28T13:32:18;26.30;95.50
19813;DHT22;10066;48.108;11.448;2023-07-28T13:34:46;26.30;95.20
19813;DHT22;10066;48.108;11.448;2023-07-28T13:37:13;26.30;95.10
19813;DHT22;10066;48.108;11.448;2023-07-28T13:39:41;26.20;95.10
19813;DHT22;10066;48.108;11.448;2023-07-28T13:42:08;26.20;95.30
19813;DHT22;10066;48.108;11.448;2023-07-28T13:44:36;26.10;95.40
19813;DHT22;10066;48.108;11.448;2023-07-28T13:47:03;26.10;95.50
19813;DHT22;10066;48.108;11.448;2023-07-28T13:49:31;26.00;95.80
19813;DHT22;10066;48.108;11.448;2023-07-28T13:52:02;26.00;95.30
19813;DHT22;10066;48.108;11.448;2023-07-28T13:54:30;26.00;95.40
19813;DHT22;10066;48.108;11.448;2023-07-28T13:56:56;26.00;95.80
19813;DHT22;10066;48.108;11.448;2023-07-28T13:59:23;26.10;95.50
19813;DHT22;10066;48.108;11.448;2023-07-28T14:01:53;26.10;95.70
19813;DHT22;10066;48.108;11.448;2023-07-28T14:04:21;26.10;95.10
19813;DHT22;10066;48.108;11.448;2023-07-28T14:06:48;25.90;94.40
19813;DHT22;10066;48.108;11.448;2023-07-28T14:09:16;25.90;94.30
19813;DHT22;10066;48.108;11.448;2023-07-28T14:11:43;25.80;93.90
19813;DHT22;10066;48.108;11.448;2023-07-28T14:14:10;25.70;94.00
19813;DHT22;10066;48.108;11.448;2023-07-28T14:16:37;25.60;93.70
19813;DHT22;10066;48.108;11.448;2023-07-28T14:19:04;25.50;93.90
19813;DHT22;10066;48.108;11.448;2023-07-28T14:21:31;25.40;93.60
19813;DHT22;10066;48.108;11.448;2023-07-28T14:23:58;25.30;93.80
19813;DHT22;10066;48.108;11.448;2023-07-28T14:26:26;25.00;95.20
19813;DHT22;10066;48.108;11.448;2023-07-28T14:28:53;24.70;97.30
19813;DHT22;10066;48.108;11.448;2023-07-28T14:31:20;24.30;98.70
19813;DHT22;10066;48.108;11.448;2023-07-28T14:33:49;23.90;99.90
19813;DHT22;10066;48.108;11.448;2023-07-28T14:36:16;23.40;99.90
19813;DHT22;10066;48.108;11.448;2023-07-28T14:38:43;23.10;99.90
19813;DHT22;10066;48.108;11.448;2023-07-28T14:41:10;22.80;99.90
19813;DHT22;10066;48.108;11.448;2023-07-28T14:43:38;22.50;99.90
19813;DHT22;10066;48.108;11.448;2023-07-28T14:46:05;22.20;99.90
19813;DHT22;10066;48.108;11.448;2023-07-28T14:48:32;22.00;99.90
19813;DHT22;10066;48.108;11.448;2023-07-28T14:51:00;21.90;99.90
19813;DHT22;10066;48.108;11.448;2023-07-28T14:53:31;21.80;99.90
19813;DHT22;10066;48.108;11.448;2023-07-28T14:55:59;21.80;99.90
19813;DHT22;10066;48.108;11.448;2023-07-28T14:58:27;21.90;99.90
19813;DHT22;10066;48.108;11.448;2023-07-28T15:00:56;22.00;99.90
19813;DHT22;10066;48.108;11.448;2023-07-28T15:03:27;22.00;99.90
19813;DHT22;10066;48.108;11.448;2023-07-28T15:05:56;22.10;99.90
19813;DHT22;10066;48.108;11.448;2023-07-28T15:08:23;22.20;99.90
19813;DHT22;10066;48.108;11.448;2023-07-28T15:10:50;22.40;99.90
19813;DHT22;10066;48.108;11.448;2023-07-28T15:13:17;22.50;99.90
19813;DHT22;10066;48.108;11.448;2023-07-28T15:15:44;22.70;99.90
19813;DHT22;10066;48.108;11.448;2023-07-28T15:18:13;22.90;99.90
19813;DHT22;10066;48.108;11.448;2023-07-28T15:20:41;23.00;99.90
19813;DHT22;10066;48.108;11.448;2023-07-28T15:23:08;23.20;99.90
19813;DHT22;10066;48.108;11.448;2023-07-28T15:25:36;23.30;99.90
19813;DHT22;10066;48.108;11.448;2023-07-28T15:28:09;23.40;99.90
19813;DHT22;10066;48.108;11.448;2023-07-28T15:30:36;23.50;99.90
19813;DHT22;10066;48.108;11.448;2023-07-28T15:33:03;23.60;99.90